createdAt,value
2022-08-25T00:02:00.072Z,2.10
2022-08-25T00:04:31.960Z,2.10
2022-08-25T00:07:03.282Z,1.80
2022-08-25T00:09:31.927Z,1.90
2022-08-25T00:11:59.185Z,1.87
2022-08-25T00:14:30.783Z,2.17
2022-08-25T00:16:57.589Z,1.67
2022-08-25T00:19:28.425Z,2.10
2022-08-25T00:21:55.955Z,2.00
2022-08-25T00:24:23.407Z,2.00
2022-08-25T00:26:54.459Z,2.07
2022-08-25T00:29:22.793Z,1.90
2022-08-25T00:31:49.643Z,2.00
2022-08-25T00:34:21.504Z,1.80
2022-08-25T00:36:51.876Z,1.90
2022-08-25T00:39:21.109Z,1.90
2022-08-25T00:41:49.735Z,1.90
2022-08-25T00:44:20.143Z,2.00
2022-08-25T00:46:50.440Z,1.93
2022-08-25T00:49:27.252Z,1.77
2022-08-25T00:52:14.861Z,2.10
2022-08-25T00:54:53.077Z,1.90
2022-08-25T00:57:27.182Z,2.00
2022-08-25T01:00:07.423Z,2.07
2022-08-25T01:02:34.168Z,1.80
2022-08-25T01:05:00.891Z,1.90
2022-08-25T01:07:27.775Z,2.10
2022-08-25T01:09:55.620Z,1.80
2022-08-25T01:12:22.555Z,1.83
2022-08-25T01:14:50.166Z,2.10
2022-08-25T01:17:17.116Z,2.20
2022-08-25T01:19:44.159Z,2.10
2022-08-25T01:22:12.032Z,2.10
2022-08-25T01:24:53.313Z,2.00
2022-08-25T01:27:20.055Z,2.10
2022-08-25T01:29:46.757Z,1.73
2022-08-25T01:32:14.155Z,1.90
2022-08-25T01:34:43.798Z,1.90
2022-08-25T01:37:13.639Z,1.90
2022-08-25T01:39:42.193Z,1.80
2022-08-25T01:42:46.574Z,2.10
2022-08-25T01:45:14.172Z,1.83
2022-08-25T01:47:40.923Z,2.00
2022-08-25T01:50:08.028Z,1.50
2022-08-25T01:53:00.516Z,1.80
2022-08-25T01:55:27.652Z,1.73
2022-08-25T01:57:54.960Z,2.10
2022-08-25T02:00:23.303Z,2.00
2022-08-25T02:02:54.002Z,1.90
2022-08-25T02:05:23.824Z,1.70
2022-08-25T02:07:50.770Z,1.70
2022-08-25T02:10:17.633Z,1.90
2022-08-25T02:12:44.398Z,1.77
2022-08-25T02:15:11.165Z,1.80
2022-08-25T02:17:37.933Z,2.10
2022-08-25T02:20:09.031Z,1.80
2022-08-25T02:22:35.741Z,1.80
2022-08-25T02:25:02.793Z,2.00
2022-08-25T02:27:29.531Z,1.70
2022-08-25T02:29:56.250Z,2.00
2022-08-25T02:32:22.983Z,1.90
2022-08-25T02:34:49.826Z,1.70
2022-08-25T02:37:16.919Z,2.00
2022-08-25T02:39:43.899Z,1.80
2022-08-25T02:42:10.607Z,1.70
2022-08-25T02:44:37.337Z,1.83
2022-08-25T02:47:04.272Z,1.70
2022-08-25T02:49:32.054Z,1.77
2022-08-25T02:52:00.512Z,2.03
2022-08-25T02:54:28.632Z,1.80
2022-08-25T02:56:55.386Z,1.73
2022-08-25T02:59:22.078Z,1.63
2022-08-25T03:01:48.811Z,1.53
2022-08-25T03:04:17.224Z,2.20
2022-08-25T03:06:44.437Z,1.90
2022-08-25T03:09:11.688Z,1.80
2022-08-25T03:11:38.736Z,1.83
2022-08-25T03:14:07.052Z,1.83
2022-08-25T03:16:34.282Z,2.00
2022-08-25T03:19:01.579Z,2.00
2022-08-25T03:21:30.227Z,1.80
2022-08-25T03:23:57.263Z,2.00
2022-08-25T03:26:42.696Z,1.70
2022-08-25T03:29:10.494Z,1.80
2022-08-25T03:31:38.926Z,1.90
2022-08-25T03:34:05.899Z,1.87
2022-08-25T03:36:32.596Z,1.80
2022-08-25T03:39:00.450Z,1.77
2022-08-25T03:41:32.547Z,2.10
2022-08-25T03:44:00.303Z,2.20
2022-08-25T03:46:31.024Z,1.77
2022-08-25T03:48:58.326Z,1.97
2022-08-25T03:51:33.819Z,2.07
2022-08-25T03:54:01.612Z,2.07
2022-08-25T03:56:28.938Z,1.73
2022-08-25T03:58:56.085Z,2.23
2022-08-25T04:01:23.775Z,2.00
2022-08-25T04:03:50.691Z,2.20
2022-08-25T04:06:19.792Z,2.30
2022-08-25T04:08:46.603Z,2.00
2022-08-25T04:11:17.576Z,1.90
2022-08-25T04:13:46.538Z,2.07
2022-08-25T04:16:15.444Z,2.20
2022-08-25T04:18:42.951Z,2.03
2022-08-25T04:21:11.917Z,2.20
2022-08-25T04:23:40.759Z,2.03
2022-08-25T04:26:16.228Z,2.50
2022-08-25T04:28:42.941Z,2.20
2022-08-25T04:31:12.130Z,2.10
2022-08-25T04:33:39.092Z,2.07
2022-08-25T04:36:11.396Z,1.90
2022-08-25T04:38:42.899Z,1.90
2022-08-25T04:41:11.697Z,2.10
2022-08-25T04:43:39.914Z,2.20
2022-08-25T04:46:11.167Z,2.30
2022-08-25T04:48:39.856Z,2.03
2022-08-25T04:51:08.352Z,2.17
2022-08-25T04:53:35.344Z,2.07
2022-08-25T04:56:03.935Z,2.30
2022-08-25T04:58:31.279Z,2.00
2022-08-25T05:01:04.867Z,2.10
2022-08-25T05:03:31.700Z,2.10
2022-08-25T05:05:58.591Z,2.10
2022-08-25T05:08:25.610Z,1.90
2022-08-25T05:10:54.527Z,2.00
2022-08-25T05:13:26.095Z,2.20
2022-08-25T05:15:56.229Z,1.90
2022-08-25T05:18:27.739Z,2.10
2022-08-25T05:20:56.005Z,2.00
2022-08-25T05:23:24.538Z,1.87
2022-08-25T05:25:52.877Z,2.00
2022-08-25T05:28:20.857Z,2.10
2022-08-25T05:30:51.346Z,2.40
2022-08-25T05:33:18.451Z,2.20
2022-08-25T05:35:45.284Z,2.03
2022-08-25T05:38:15.323Z,2.30
2022-08-25T05:40:42.528Z,2.03
2022-08-25T05:43:10.289Z,2.23
2022-08-25T05:45:37.189Z,1.80
2022-08-25T05:48:04.102Z,1.97
2022-08-25T05:50:30.910Z,1.83
2022-08-25T05:52:57.696Z,2.07
2022-08-25T05:55:24.653Z,1.70
2022-08-25T05:57:51.398Z,1.87
2022-08-25T06:00:18.722Z,1.90
2022-08-25T06:02:46.678Z,1.80
2022-08-25T06:05:23.371Z,1.97
2022-08-25T06:07:52.236Z,1.90
2022-08-25T06:10:20.184Z,2.03
2022-08-25T06:12:48.288Z,1.73
2022-08-25T06:15:18.932Z,2.03
2022-08-25T06:17:45.897Z,1.60
2022-08-25T06:20:20.363Z,2.00
2022-08-25T06:22:52.310Z,1.90
2022-08-25T06:25:21.940Z,2.30
2022-08-25T06:27:49.340Z,1.90
2022-08-25T06:30:24.531Z,2.17
2022-08-25T06:32:55.774Z,2.07
2022-08-25T06:35:22.740Z,1.80
2022-08-25T06:37:49.462Z,1.95
2022-08-25T06:40:16.960Z,2.00
2022-08-25T06:42:48.882Z,2.10
2022-08-25T06:45:15.887Z,1.98
2022-08-25T06:47:42.849Z,2.00
2022-08-25T06:50:12.635Z,2.00
2022-08-25T06:52:39.387Z,2.10
2022-08-25T06:55:06.748Z,2.40
2022-08-25T06:57:35.833Z,2.03
2022-08-25T07:00:08.016Z,2.15
2022-08-25T07:02:35.412Z,2.00
2022-08-25T07:05:02.865Z,2.42
2022-08-25T07:07:43.228Z,2.13
2022-08-25T07:10:12.773Z,2.38
2022-08-25T07:12:40.329Z,2.53
2022-08-25T07:15:19.718Z,2.47
2022-08-25T07:17:47.409Z,2.28
2022-08-25T07:20:16.551Z,2.42
2022-08-25T07:22:43.518Z,2.40
2022-08-25T07:25:11.866Z,2.60
2022-08-25T07:27:39.612Z,2.88
2022-08-25T07:30:11.327Z,2.60
2022-08-25T07:32:42.255Z,2.75
2022-08-25T07:35:20.494Z,2.75
2022-08-25T07:37:58.730Z,2.50
2022-08-25T07:40:31.942Z,2.40
2022-08-25T07:43:03.558Z,2.63
2022-08-25T07:45:34.249Z,3.15
2022-08-25T07:48:04.858Z,2.70
2022-08-25T07:50:32.561Z,2.42
2022-08-25T07:53:00.284Z,2.80
2022-08-25T07:55:30.129Z,2.65
2022-08-25T07:57:57.416Z,2.67
2022-08-25T08:00:27.637Z,2.42
2022-08-25T08:02:54.979Z,2.50
2022-08-25T08:05:23.826Z,2.35
2022-08-25T08:07:52.328Z,2.58
2022-08-25T08:13:07.719Z,2.38
2022-08-25T08:15:35.490Z,2.38
2022-08-25T08:18:03.095Z,2.60
2022-08-25T08:20:43.171Z,2.40
2022-08-25T08:23:11.437Z,2.25
2022-08-25T08:25:38.248Z,2.38
2022-08-25T08:28:07.151Z,2.70
2022-08-25T08:30:36.400Z,2.50
2022-08-25T08:33:12.886Z,2.38
2022-08-25T08:35:41.520Z,2.70
2022-08-25T08:38:14.481Z,2.72
2022-08-25T08:41:22.993Z,2.60
2022-08-25T08:43:56.352Z,2.60
2022-08-25T08:46:26.067Z,2.60
2022-08-25T08:49:02.587Z,2.55
2022-08-25T08:51:35.972Z,2.58
2022-08-25T08:54:25.090Z,2.60
2022-08-25T08:57:06.181Z,2.65
2022-08-25T08:59:44.525Z,2.60
2022-08-25T09:02:39.520Z,2.47
2022-08-25T09:05:15.208Z,2.25
2022-08-25T09:07:48.322Z,2.50
2022-08-25T09:10:17.447Z,2.40
2022-08-25T09:12:56.823Z,2.90
2022-08-25T09:16:20.610Z,2.13
2022-08-25T09:19:28.778Z,2.50
2022-08-25T09:22:33.710Z,2.33
2022-08-25T09:25:29.535Z,2.30
2022-08-25T09:28:22.005Z,2.30
2022-08-25T09:30:58.353Z,3.03
2022-08-25T09:33:27.461Z,2.58
2022-08-25T09:35:57.282Z,2.28
2022-08-25T09:38:26.429Z,2.53
2022-08-25T09:41:00.778Z,2.70
2022-08-25T09:43:37.059Z,3.03
2022-08-25T09:46:10.587Z,2.03
2022-08-25T09:48:56.557Z,2.60
2022-08-25T09:51:28.342Z,2.92
2022-08-25T09:53:55.983Z,2.80
2022-08-25T09:56:26.630Z,2.78
2022-08-25T09:58:55.129Z,2.75
2022-08-25T10:01:23.828Z,2.50
2022-08-25T10:04:05.905Z,2.70
2022-08-25T10:06:47.243Z,2.80
2022-08-25T10:09:41.880Z,2.58
2022-08-25T10:12:42.506Z,2.60
2022-08-25T10:15:29.570Z,3.10
2022-08-25T10:18:25.715Z,2.85
2022-08-25T10:21:07.545Z,2.97
2022-08-25T10:23:41.986Z,2.40
2022-08-25T10:26:19.916Z,2.78
2022-08-25T10:28:46.567Z,2.60
2022-08-25T10:31:26.052Z,2.38
2022-08-25T10:34:02.368Z,2.60
2022-08-25T10:36:46.989Z,2.45
2022-08-25T10:39:43.763Z,2.45
2022-08-25T10:42:32.405Z,2.63
2022-08-25T10:45:24.362Z,2.33
2022-08-25T10:48:12.972Z,2.47
2022-08-25T10:50:49.029Z,2.30
2022-08-25T10:53:23.608Z,2.50
2022-08-25T10:56:03.184Z,2.65
2022-08-25T10:58:36.656Z,2.65
2022-08-25T11:01:34.694Z,2.63
2022-08-25T11:04:13.852Z,2.33
2022-08-25T11:07:00.609Z,2.60
2022-08-25T11:09:36.590Z,2.33
2022-08-25T11:12:27.114Z,2.50
2022-08-25T11:15:00.065Z,2.28
2022-08-25T11:17:43.880Z,2.60
2022-08-25T11:20:26.547Z,2.53
2022-08-25T11:23:12.221Z,3.10
2022-08-25T11:25:49.333Z,2.55
2022-08-25T11:28:32.817Z,2.47
2022-08-25T11:31:02.071Z,2.95
2022-08-25T11:33:30.675Z,2.70
2022-08-25T11:36:03.407Z,2.67
2022-08-25T11:38:48.187Z,2.45
2022-08-25T11:41:22.116Z,2.38
2022-08-25T11:44:03.771Z,2.70
2022-08-25T11:46:43.230Z,2.63
2022-08-25T11:49:26.172Z,2.40
2022-08-25T11:51:52.994Z,2.65
2022-08-25T11:54:36.756Z,2.88
2022-08-25T11:57:07.842Z,3.00
2022-08-25T11:59:49.679Z,2.40
2022-08-25T12:02:44.018Z,2.50
2022-08-25T12:05:12.866Z,2.38
2022-08-25T12:08:21.611Z,2.40
2022-08-25T12:10:59.231Z,2.38
2022-08-25T12:13:45.102Z,2.53
2022-08-25T12:16:36.827Z,2.50
2022-08-25T12:19:34.474Z,2.70
2022-08-25T12:22:01.201Z,2.92
2022-08-25T12:24:47.523Z,3.00
2022-08-25T12:27:33.959Z,3.00
2022-08-25T12:30:05.094Z,3.17
2022-08-25T12:32:59.542Z,3.08
2022-08-25T12:35:40.979Z,2.90
2022-08-25T12:38:42.586Z,2.90
2022-08-25T12:41:14.756Z,3.22
2022-08-25T12:43:44.891Z,3.10
2022-08-25T12:46:25.748Z,3.00
2022-08-25T12:48:58.575Z,3.03
2022-08-25T12:51:38.999Z,2.90
2022-08-25T12:54:25.390Z,2.90
2022-08-25T12:57:05.111Z,3.15
2022-08-25T12:59:45.805Z,2.75
2022-08-25T13:02:36.874Z,2.80
2022-08-25T13:05:28.722Z,2.72
2022-08-25T13:08:19.316Z,3.10
2022-08-25T13:10:55.919Z,3.08
2022-08-25T13:13:41.474Z,3.13
2022-08-25T13:16:16.320Z,2.67
2022-08-25T13:18:45.044Z,3.10
2022-08-25T13:21:22.670Z,3.10
2022-08-25T13:23:53.981Z,2.50
2022-08-25T13:26:31.726Z,2.72
2022-08-25T13:29:22.306Z,2.60
2022-08-25T13:31:58.875Z,2.97
2022-08-25T13:34:34.469Z,2.90
2022-08-25T13:37:25.118Z,2.65
2022-08-25T13:40:07.994Z,2.80
2022-08-25T13:42:42.528Z,2.70
2022-08-25T13:45:17.921Z,3.35
2022-08-25T13:47:46.220Z,3.10
2022-08-25T13:50:26.510Z,2.72
2022-08-25T13:52:56.748Z,2.90
2022-08-25T13:55:28.635Z,3.10
2022-08-25T13:57:58.273Z,2.80
2022-08-25T14:00:33.321Z,3.13
2022-08-25T14:03:08.664Z,3.20
2022-08-25T14:05:42.578Z,3.05
2022-08-25T14:08:31.483Z,2.72
2022-08-25T14:11:14.829Z,3.10
2022-08-25T14:13:45.511Z,3.20
2022-08-25T14:16:15.268Z,2.90
2022-08-25T14:18:52.075Z,2.53
2022-08-25T14:21:22.905Z,2.80
2022-08-25T14:23:49.634Z,2.78
2022-08-25T14:26:16.598Z,2.60
2022-08-25T14:28:43.283Z,2.88
2022-08-25T14:31:14.077Z,2.72
2022-08-25T14:33:49.998Z,2.92
2022-08-25T14:36:18.705Z,2.67
2022-08-25T14:38:47.837Z,2.60
2022-08-25T14:41:23.827Z,2.80
2022-08-25T14:43:50.712Z,2.60
2022-08-25T14:46:24.423Z,2.85
2022-08-25T14:48:56.706Z,2.72
2022-08-25T14:51:25.347Z,2.60
2022-08-25T14:53:57.419Z,2.65
2022-08-25T14:56:24.224Z,2.80
2022-08-25T14:58:54.652Z,2.83
2022-08-25T15:01:29.618Z,2.53
2022-08-25T15:04:18.960Z,2.58
2022-08-25T15:06:46.856Z,2.45
2022-08-25T15:09:17.146Z,2.60
2022-08-25T15:11:47.162Z,2.70
2022-08-25T15:14:28.881Z,2.92
2022-08-25T15:17:01.637Z,2.90
2022-08-25T15:19:28.875Z,2.55
2022-08-25T15:21:58.125Z,2.65
2022-08-25T15:24:27.410Z,2.70
2022-08-25T15:27:03.938Z,2.67
2022-08-25T15:29:34.685Z,2.60
2022-08-25T15:32:04.937Z,2.55
2022-08-25T15:34:32.078Z,2.45
2022-08-25T15:37:01.812Z,2.78
2022-08-25T15:39:29.499Z,2.67
2022-08-25T15:41:57.167Z,2.80
2022-08-25T15:44:29.185Z,2.63
2022-08-25T15:46:56.499Z,2.92
2022-08-25T15:49:24.114Z,2.90
2022-08-25T15:51:55.206Z,2.97
2022-08-25T15:54:26.634Z,2.72
2022-08-25T15:56:55.272Z,3.10
2022-08-25T15:59:22.640Z,2.88
2022-08-25T16:01:54.859Z,2.67
2022-08-25T16:04:24.715Z,3.03
2022-08-25T16:06:51.969Z,2.70
2022-08-25T16:09:19.216Z,2.88
2022-08-25T16:11:57.155Z,3.90
2022-08-25T16:14:25.253Z,3.35
2022-08-25T16:16:58.413Z,2.90
2022-08-25T16:19:26.954Z,2.97
2022-08-25T16:21:53.646Z,2.80
2022-08-25T16:24:20.478Z,3.03
2022-08-25T16:26:48.044Z,2.65
2022-08-25T16:29:15.848Z,2.70
2022-08-25T16:31:44.219Z,2.80
2022-08-25T16:34:12.016Z,3.03
2022-08-25T16:36:39.999Z,2.50
2022-08-25T16:39:10.039Z,2.38
2022-08-25T16:41:36.953Z,2.60
2022-08-25T16:44:07.756Z,2.70
2022-08-25T16:46:38.846Z,2.30
2022-08-25T16:49:08.585Z,2.97
2022-08-25T16:51:37.072Z,2.50
2022-08-25T16:54:23.541Z,2.28
2022-08-25T16:56:54.828Z,2.67
2022-08-25T16:59:23.345Z,2.55
2022-08-25T17:01:51.192Z,2.65
2022-08-25T17:04:18.013Z,2.40
2022-08-25T17:06:51.699Z,2.35
2022-08-25T17:09:22.783Z,2.50
2022-08-25T17:11:52.640Z,2.45
2022-08-25T17:14:21.476Z,2.20
2022-08-25T17:16:48.638Z,2.60
2022-08-25T17:19:18.561Z,2.30
2022-08-25T17:21:50.004Z,2.65
2022-08-25T17:24:17.106Z,2.60
2022-08-25T17:26:46.371Z,2.85
2022-08-25T17:29:13.303Z,2.50
2022-08-25T17:31:40.588Z,2.78
2022-08-25T17:34:12.906Z,2.67
2022-08-25T17:36:43.908Z,3.03
2022-08-25T17:39:12.796Z,2.65
2022-08-25T17:41:42.951Z,2.78
2022-08-25T17:44:09.799Z,2.70
2022-08-25T17:46:38.463Z,2.53
2022-08-25T17:49:08.833Z,2.47
2022-08-25T17:51:35.574Z,2.40
2022-08-25T17:54:02.511Z,2.97
2022-08-25T17:56:29.940Z,2.83
2022-08-25T17:58:57.231Z,2.70
2022-08-25T18:01:31.224Z,3.20
2022-08-25T18:03:59.194Z,2.83
2022-08-25T18:06:29.488Z,3.00
2022-08-25T18:08:59.852Z,2.60
2022-08-25T18:11:28.693Z,2.58
2022-08-25T18:13:55.773Z,2.88
2022-08-25T18:16:24.567Z,2.95
2022-08-25T18:18:53.558Z,2.67
2022-08-25T18:21:22.431Z,2.60
2022-08-25T18:23:49.800Z,2.40
2022-08-25T18:26:19.170Z,2.78
2022-08-25T18:28:51.331Z,2.70
2022-08-25T18:31:19.883Z,3.10
2022-08-25T18:33:47.144Z,3.10
2022-08-25T18:36:20.305Z,2.65
2022-08-25T18:39:06.547Z,2.80
2022-08-25T18:41:38.548Z,2.70
2022-08-25T18:44:07.156Z,2.50
2022-08-25T18:46:33.922Z,2.67
2022-08-25T18:49:01.173Z,2.67
2022-08-25T18:51:27.937Z,2.78
2022-08-25T18:54:01.052Z,2.40
2022-08-25T18:56:28.805Z,2.63
2022-08-25T18:58:56.082Z,2.83
2022-08-25T19:01:23.131Z,2.60
2022-08-25T19:03:50.438Z,2.70
2022-08-25T19:06:19.203Z,2.67
2022-08-25T19:08:46.605Z,2.60
2022-08-25T19:11:13.443Z,3.10
2022-08-25T19:13:40.493Z,2.75
2022-08-25T19:16:29.678Z,3.03
2022-08-25T19:18:56.749Z,2.85
2022-08-25T19:21:25.113Z,3.13
2022-08-25T19:23:53.392Z,3.00
2022-08-25T19:26:21.375Z,2.80
2022-08-25T19:28:49.434Z,2.80
2022-08-25T19:31:24.644Z,2.60
2022-08-25T19:33:53.785Z,3.07
2022-08-25T19:36:24.767Z,2.90
2022-08-25T19:38:58.220Z,2.80
2022-08-25T19:41:26.105Z,2.90
2022-08-25T19:43:56.069Z,2.80
2022-08-25T19:46:33.320Z,2.50
2022-08-25T19:49:09.000Z,2.70
2022-08-25T19:51:44.282Z,2.55
2022-08-25T19:54:16.914Z,2.70
2022-08-25T19:56:54.464Z,2.80
2022-08-25T19:59:25.298Z,2.50
2022-08-25T20:01:53.026Z,2.83
2022-08-25T20:04:20.363Z,2.70
2022-08-25T20:06:48.286Z,3.00
2022-08-25T20:09:35.708Z,2.90
2022-08-25T20:12:03.254Z,2.70
2022-08-25T20:14:30.043Z,2.97
2022-08-25T20:16:56.791Z,2.97
2022-08-25T20:19:23.588Z,3.07
2022-08-25T20:21:50.279Z,2.93
2022-08-25T20:24:35.524Z,2.90
2022-08-25T20:27:03.644Z,2.70
2022-08-25T20:29:31.012Z,2.90
2022-08-25T20:31:59.627Z,3.10
2022-08-25T20:34:28.629Z,3.20
2022-08-25T20:36:55.629Z,2.60
2022-08-25T20:39:22.998Z,3.03
2022-08-25T20:41:49.694Z,2.87
2022-08-25T20:44:17.579Z,3.00
2022-08-25T20:46:45.396Z,3.17
2022-08-25T20:49:13.574Z,3.50
2022-08-25T20:51:40.674Z,3.73
2022-08-25T20:54:11.393Z,3.87
2022-08-25T20:56:38.065Z,3.30
2022-08-25T20:59:04.815Z,3.47
2022-08-25T21:01:42.195Z,3.67
2022-08-25T21:04:12.886Z,3.50
2022-08-25T21:06:42.016Z,3.43
2022-08-25T21:09:15.826Z,3.40
2022-08-25T21:11:45.048Z,3.10
2022-08-25T21:14:13.617Z,3.13
2022-08-25T21:16:46.171Z,3.37
2022-08-25T21:19:17.443Z,3.50
2022-08-25T21:21:59.596Z,3.20
2022-08-25T21:24:28.264Z,3.47
2022-08-25T21:26:56.913Z,3.30
2022-08-25T21:29:25.910Z,3.40
2022-08-25T21:31:58.536Z,3.37
2022-08-25T21:34:26.072Z,3.10
2022-08-25T21:36:59.264Z,3.30
2022-08-25T21:39:28.090Z,3.50
2022-08-25T21:41:56.520Z,3.07
2022-08-25T21:44:23.493Z,3.40
2022-08-25T21:46:54.161Z,3.43
2022-08-25T21:49:22.581Z,3.40
2022-08-25T21:51:59.180Z,3.70
2022-08-25T21:54:26.886Z,3.87
2022-08-25T21:57:01.603Z,3.10
2022-08-25T21:59:37.131Z,3.40
2022-08-25T22:02:07.947Z,3.53
2022-08-25T22:04:38.820Z,3.50
2022-08-25T22:07:07.724Z,3.23
2022-08-25T22:09:35.528Z,3.27
2022-08-25T22:12:03.468Z,3.30
2022-08-25T22:14:30.294Z,3.67
2022-08-25T22:16:57.108Z,3.80
2022-08-25T22:19:24.846Z,3.47
2022-08-25T22:21:52.770Z,3.50
2022-08-25T22:24:19.598Z,4.10
2022-08-25T22:26:47.631Z,3.63
2022-08-25T22:29:24.653Z,3.60
2022-08-25T22:31:52.810Z,3.70
2022-08-25T22:34:20.135Z,3.63
2022-08-25T22:37:00.051Z,3.53
2022-08-25T22:39:27.495Z,3.40
2022-08-25T22:41:54.275Z,3.40
2022-08-25T22:44:23.062Z,3.40
2022-08-25T22:46:49.841Z,3.50
2022-08-25T22:49:17.147Z,3.63
2022-08-25T22:51:44.351Z,3.63
2022-08-25T22:54:15.023Z,3.57
2022-08-25T22:56:42.511Z,3.47
2022-08-25T22:59:13.152Z,3.77
2022-08-25T23:01:42.789Z,3.47
2022-08-25T23:04:10.824Z,3.83
2022-08-25T23:06:38.291Z,3.50
2022-08-25T23:09:07.768Z,3.60
2022-08-25T23:11:35.817Z,3.40
2022-08-25T23:14:09.400Z,3.40
2022-08-25T23:16:37.489Z,3.30
2022-08-25T23:19:04.553Z,3.37
2022-08-25T23:21:51.444Z,3.83
2022-08-25T23:24:29.502Z,3.80
2022-08-25T23:27:02.287Z,3.40
2022-08-25T23:29:34.310Z,3.70
2022-08-25T23:32:01.142Z,3.87
2022-08-25T23:34:28.597Z,3.93
2022-08-25T23:36:55.982Z,3.53
2022-08-25T23:39:23.291Z,3.80
2022-08-25T23:41:51.501Z,3.90
2022-08-25T23:44:20.144Z,3.50
2022-08-25T23:46:48.191Z,3.57
2022-08-25T23:49:18.217Z,3.40
2022-08-25T23:51:47.928Z,3.40
2022-08-25T23:54:17.114Z,3.73
2022-08-25T23:56:51.659Z,3.63
2022-08-25T23:59:24.050Z,3.07
